Time;durP1;ratioP1;P1;durP2;ratioP2;P2;SDS_P1;SDS_P2;PMS_P1;PMS_P2;Temp;Humidity;BMP_temperature;BMP_pressure;BME280_temperature;BME280_humidity;BME280_pressure;Samples;Min_cycle;Max_cycle;Signal;HPM_P1;HPM_P2
2021/11/19 00:00:41;;;;;;;18.50;13.10;;;;;;;11.34;96.41;102255.38;5030510;28;20609;-74
2021/11/19 00:03:08;;;;;;;18.27;13.47;;;;;;;11.35;96.04;102252.00;5016755;28;20207;-74
2021/11/19 00:05:34;;;;;;;18.90;14.23;;;;;;;11.37;96.19;102246.91;5011315;28;20195;-74
2021/11/19 00:08:00;;;;;;;19.13;14.37;;;;;;;11.37;96.16;102241.78;5015614;28;20183;-74
2021/11/19 00:10:26;;;;;;;20.87;15.07;;;;;;;11.42;95.85;102253.09;5010945;28;20209;-74
2021/11/19 00:12:51;;;;;;;25.13;16.83;;;;;;;11.42;95.71;102250.53;5010166;28;20202;-74
2021/11/19 00:15:17;;;;;;;23.00;16.43;;;;;;;11.45;95.71;102254.09;5009906;28;20918;-74
2021/11/19 00:17:43;;;;;;;20.63;15.83;;;;;;;11.44;95.99;102249.81;5011099;28;20269;-74
2021/11/19 00:20:13;;;;;;;18.97;15.80;;;;;;;11.46;95.95;102239.56;5013599;28;20211;-74
2021/11/19 00:22:39;;;;;;;22.63;16.47;;;;;;;11.46;95.46;102243.03;5018717;28;20214;-74
2021/11/19 00:25:06;;;;;;;24.90;16.43;;;;;;;11.47;95.74;102241.34;5030448;28;20186;-74
2021/11/19 00:27:32;;;;;;;22.60;15.70;;;;;;;11.49;95.89;102242.25;5014589;28;20737;-74
2021/11/19 00:29:58;;;;;;;24.17;16.17;;;;;;;11.49;95.43;102238.03;5013060;28;20187;-74
2021/11/19 00:32:23;;;;;;;23.23;15.40;;;;;;;11.51;95.22;102231.25;5028710;28;20648;-74
2021/11/19 00:34:49;;;;;;;21.93;15.47;;;;;;;11.58;95.10;102233.25;5012831;28;20220;-74
2021/11/19 00:37:17;;;;;;;21.27;14.53;;;;;;;11.57;94.92;102239.16;5008890;28;20621;-74
2021/11/19 00:39:42;;;;;;;24.63;14.63;;;;;;;11.57;94.67;102234.03;5028111;28;20571;-74
2021/11/19 00:42:09;;;;;;;21.97;15.00;;;;;;;11.60;94.70;102235.88;5016838;28;20276;-74
2021/11/19 00:44:35;;;;;;;19.30;14.33;;;;;;;11.61;94.55;102241.06;5006197;28;20187;-74
2021/11/19 00:47:02;;;;;;;17.83;14.40;;;;;;;11.63;94.28;102236.00;5010805;28;20632;-74
2021/11/19 00:49:30;;;;;;;17.70;14.13;;;;;;;11.64;94.40;102245.44;5014042;28;20187;-74
2021/11/19 00:51:58;;;;;;;22.40;15.33;;;;;;;11.65;93.99;102234.34;5029544;28;20737;-74
2021/11/19 00:54:24;;;;;;;22.80;14.30;;;;;;;11.64;94.23;102250.56;5025486;28;20202;-74
2021/11/19 00:56:56;;;;;;;22.30;14.00;;;;;;;11.65;94.03;102244.59;5012265;28;20199;-74
2021/11/19 00:59:23;;;;;;;17.60;13.83;;;;;;;11.65;93.86;102248.06;5013043;28;20217;-74
2021/11/19 01:02:10;;;;;;;20.50;13.83;;;;;;;11.66;94.00;102264.34;5023006;28;20691;-74
2021/11/19 01:04:36;;;;;;;19.43;13.73;;;;;;;11.66;93.34;102260.06;5010225;28;20187;-74
2021/11/19 01:07:04;;;;;;;23.23;13.70;;;;;;;11.67;93.98;102266.09;5021576;28;20187;-74
2021/11/19 01:09:33;;;;;;;22.73;13.87;;;;;;;11.71;93.72;102261.13;5008570;28;20225;-73
2021/11/19 01:12:00;;;;;;;18.17;13.13;;;;;;;11.74;93.61;102268.06;5009564;28;20211;-74
2021/11/19 01:14:59;;;;;;;25.20;13.23;;;;;;;11.73;93.13;102264.63;5008607;28;20566;-74
2021/11/19 01:17:34;;;;;;;20.57;12.73;;;;;;;11.75;93.27;102269.81;5017850;28;20201;-74
2021/11/19 01:20:03;;;;;;;19.93;13.30;;;;;;;11.76;93.04;102271.56;5011729;28;20295;-74
2021/11/19 01:22:32;;;;;;;23.67;13.57;;;;;;;11.76;93.43;102274.13;5028399;28;20206;-74
2021/11/19 01:24:58;;;;;;;19.97;13.33;;;;;;;11.77;93.08;102270.75;5012112;28;20281;-73
2021/11/19 01:27:24;;;;;;;19.20;13.83;;;;;;;11.78;93.58;102273.38;5016252;28;20274;-74
2021/11/19 01:29:50;;;;;;;17.17;13.80;;;;;;;11.81;93.21;102278.63;5022890;28;20190;-74
2021/11/19 01:32:21;;;;;;;19.00;12.50;;;;;;;11.80;93.57;102284.56;5014143;28;20245;-74
2021/11/19 01:35:05;;;;;;;19.33;13.03;;;;;;;11.84;93.23;102283.84;5010103;28;20234;-73
2021/11/19 01:38:07;;;;;;;21.03;12.73;;;;;;;11.85;92.97;102288.16;5009695;28;20218;-74
2021/11/19 01:40:45;;;;;;;16.37;12.23;;;;;;;11.84;93.17;102280.44;5006422;28;20174;-74
2021/11/19 01:43:26;;;;;;;19.63;12.90;;;;;;;11.84;93.30;102285.56;5024601;28;20331;-74
2021/11/19 01:45:56;;;;;;;22.27;13.23;;;;;;;11.86;93.55;102287.38;5009836;28;20207;-74
2021/11/19 01:48:28;;;;;;;21.50;13.60;;;;;;;11.85;93.77;102280.47;5008094;28;20202;-74
2021/11/19 01:50:59;;;;;;;23.07;12.90;;;;;;;11.82;94.05;102282.06;5008544;28;20187;-74
2021/11/19 01:53:57;;;;;;;22.30;12.90;;;;;;;11.83;94.17;102279.53;5025843;28;20265;-74
2021/11/19 01:56:35;;;;;;;20.17;12.70;;;;;;;11.81;94.15;102272.59;5026439;28;20245;-74
2021/11/19 01:59:33;;;;;;;24.30;13.13;;;;;;;11.81;94.22;102286.31;5017031;28;20655;-74
2021/11/19 02:02:12;;;;;;;21.03;12.70;;;;;;;11.80;94.48;102270.88;5005441;28;20211;-74
2021/11/19 02:04:47;;;;;;;20.10;13.27;;;;;;;11.81;94.42;102273.50;5028124;28;20244;-74
2021/11/19 02:07:22;;;;;;;19.63;12.90;;;;;;;11.79;94.54;102275.13;5013132;28;20197;-74
2021/11/19 02:10:14;;;;;;;22.13;13.10;;;;;;;11.80;94.77;102273.44;5008088;28;20725;-74
2021/11/19 02:12:55;;;;;;;20.43;12.33;;;;;;;11.79;94.77;102269.97;5023982;28;20202;-74
2021/11/19 02:15:25;;;;;;;22.77;11.97;;;;;;;11.79;94.08;102272.53;5014381;28;20547;-74
2021/11/19 02:17:55;;;;;;;20.83;11.03;;;;;;;11.79;94.04;102271.66;5007886;28;20974;-74
2021/11/19 02:20:27;;;;;;;15.53;10.87;;;;;;;11.78;93.60;102273.38;5031139;28;20674;-74
2021/11/19 02:22:58;;;;;;;18.63;10.47;;;;;;;11.84;93.80;102278.72;5024815;28;20206;-74
2021/11/19 02:25:28;;;;;;;20.63;11.23;;;;;;;11.83;93.67;102278.66;5009289;28;20175;-74
2021/11/19 02:27:59;;;;;;;15.60;10.57;;;;;;;11.81;94.08;102276.06;5007929;28;20187;-74
2021/11/19 02:30:34;;;;;;;19.30;11.27;;;;;;;11.81;93.88;102283.75;5007954;28;20191;-74
2021/11/19 02:33:06;;;;;;;20.07;11.53;;;;;;;11.81;94.37;102281.19;5008055;28;20618;-74
2021/11/19 02:35:36;;;;;;;18.67;10.70;;;;;;;11.81;94.53;102282.88;5008433;28;20772;-74
2021/11/19 02:38:12;;;;;;;17.50;11.03;;;;;;;11.79;94.59;102282.81;5031292;28;20255;-74
2021/11/19 02:40:41;;;;;;;20.13;12.17;;;;;;;11.79;94.69;102287.94;5011751;28;20183;-74
2021/11/19 02:43:13;;;;;;;17.13;12.20;;;;;;;11.78;94.62;102282.75;5028283;28;20611;-73
2021/11/19 02:45:43;;;;;;;16.77;11.43;;;;;;;11.79;94.66;102271.66;5051399;28;20174;-74
2021/11/19 02:48:13;;;;;;;19.83;11.70;;;;;;;11.78;95.27;102280.19;5051011;28;20185;-75
2021/11/19 02:50:39;;;;;;;16.70;10.93;;;;;;;11.80;94.97;102283.69;5051077;28;20349;-75
2021/11/19 02:53:07;;;;;;;16.37;11.27;;;;;;;11.80;95.22;102286.25;5034454;28;20291;-75
2021/11/19 02:55:39;;;;;;;17.00;11.80;;;;;;;11.79;94.85;102282.81;5021102;28;20186;-75
2021/11/19 02:58:08;;;;;;;19.37;11.03;;;;;;;11.79;94.87;102299.88;5027585;28;20608;-75
2021/11/19 03:00:46;;;;;;;19.00;10.93;;;;;;;11.80;94.70;102294.81;5011075;28;20179;-75
2021/11/19 03:03:11;;;;;;;17.23;10.57;;;;;;;11.80;94.81;102293.97;5011198;28;20226;-75
2021/11/19 03:05:38;;;;;;;18.23;11.10;;;;;;;11.78;95.09;102299.03;5011232;28;20561;-75
2021/11/19 03:08:03;;;;;;;18.50;10.47;;;;;;;11.81;94.45;102300.84;5011191;28;20258;-75
2021/11/19 03:10:39;;;;;;;17.30;10.80;;;;;;;11.80;94.45;102299.94;5011016;28;20274;-75
2021/11/19 03:13:06;;;;;;;17.07;10.27;;;;;;;11.80;94.64;102293.97;5010876;28;20206;-75
2021/11/19 03:15:38;;;;;;;15.10;10.07;;;;;;;11.79;94.32;102300.78;5012280;28;20187;-75
2021/11/19 03:18:04;;;;;;;17.57;10.80;;;;;;;11.82;94.32;102302.59;5010492;28;20672;-75
2021/11/19 03:20:30;;;;;;;15.43;8.73;;;;;;;11.81;94.40;102299.16;5010712;28;20672;-75
2021/11/19 03:22:56;;;;;;;16.00;9.87;;;;;;;11.81;94.35;102291.47;5027139;28;20257;-75
2021/11/19 03:25:36;;;;;;;13.70;9.03;;;;;;;11.82;93.78;102295.78;5010977;28;20183;-75
2021/11/19 03:28:06;;;;;;;16.37;8.97;;;;;;;11.84;93.88;102298.41;5027850;28;20215;-75
2021/11/19 03:30:35;;;;;;;14.40;9.33;;;;;;;11.83;94.13;102294.06;5011506;28;20217;-75
2021/11/19 03:33:00;;;;;;;14.23;9.70;;;;;;;11.85;94.12;102292.44;5046771;28;20248;-75
2021/11/19 03:35:27;;;;;;;13.30;9.07;;;;;;;11.85;93.88;102292.44;5050826;28;20626;-75
2021/11/19 03:37:54;;;;;;;16.40;9.07;;;;;;;11.85;93.69;102293.28;5050001;28;20239;-75
2021/11/19 03:40:25;;;;;;;13.13;8.67;;;;;;;11.85;93.87;102290.72;5033413;28;20197;-75
2021/11/19 03:42:53;;;;;;;11.57;9.33;;;;;;;11.86;93.41;102296.75;5050013;28;20244;-75
2021/11/19 03:45:24;;;;;;;14.70;8.90;;;;;;;11.86;93.06;102301.88;5051119;28;20178;-75
2021/11/19 03:47:52;;;;;;;12.37;8.63;;;;;;;11.87;93.42;102299.38;5048610;28;20632;-76
2021/11/19 03:50:22;;;;;;;16.77;8.67;;;;;;;11.87;93.19;102295.94;5049678;28;20182;-75
2021/11/19 03:52:49;;;;;;;13.90;7.90;;;;;;;11.88;93.23;102303.69;5049703;28;20201;-75
2021/11/19 03:55:19;;;;;;;14.23;8.60;;;;;;;11.88;93.14;102301.13;5049664;28;20182;-75
2021/11/19 03:57:45;;;;;;;14.10;8.20;;;;;;;11.90;92.96;102301.19;5049440;28;20189;-75
2021/11/19 04:00:15;;;;;;;13.80;8.47;;;;;;;11.91;93.17;102310.63;5049315;28;20639;-75
2021/11/19 04:02:45;;;;;;;13.77;7.63;;;;;;;11.92;93.10;102299.53;5033565;28;20208;-75
2021/11/19 04:05:13;;;;;;;13.37;8.30;;;;;;;11.94;92.62;102303.91;5049536;28;20273;-75
2021/11/19 04:07:38;;;;;;;15.60;8.67;;;;;;;11.95;92.79;102308.25;5049437;28;20619;-75
2021/11/19 04:10:06;;;;;;;13.50;7.93;;;;;;;11.96;92.56;102298.84;5049280;28;20208;-75
2021/11/19 04:12:32;;;;;;;12.77;8.07;;;;;;;11.97;92.94;102305.72;5049654;28;20629;-75
2021/11/19 04:14:57;;;;;;;10.83;7.30;;;;;;;11.97;92.24;102311.72;5049584;28;20178;-75
2021/11/19 04:17:22;;;;;;;13.77;8.40;;;;;;;11.96;92.56;102307.44;5049365;28;20217;-75
2021/11/19 04:19:48;;;;;;;16.33;8.43;;;;;;;11.95;92.66;102307.34;5048859;28;20691;-75
2021/11/19 04:22:17;;;;;;;15.17;8.40;;;;;;;11.95;93.07;102308.25;5049156;28;20385;-75
2021/11/19 04:24:54;;;;;;;16.87;9.00;;;;;;;11.98;92.69;102307.50;5048883;28;20188;-75
2021/11/19 04:27:20;;;;;;;12.57;7.73;;;;;;;11.98;92.30;102310.91;5049230;28;20193;-76
2021/11/19 04:30:14;;;;;;;14.80;7.50;;;;;;;11.99;92.16;102312.66;5049395;28;20556;-75
2021/11/19 04:32:40;;;;;;;13.93;8.20;;;;;;;12.00;92.33;102310.97;5049025;28;20206;-75
2021/11/19 04:35:07;;;;;;;14.53;7.87;;;;;;;12.00;91.84;102300.69;5048945;28;20186;-75
2021/11/19 04:37:32;;;;;;;9.23;6.93;;;;;;;11.98;92.27;102310.06;5048755;28;20178;-75
2021/11/19 04:40:06;;;;;;;12.87;7.73;;;;;;;11.96;92.03;102310.00;5048633;28;20217;-75
2021/11/19 04:42:32;;;;;;;16.17;8.03;;;;;;;11.98;91.87;102305.78;5032485;28;20213;-75
2021/11/19 04:44:57;;;;;;;11.80;7.47;;;;;;;12.02;91.51;102309.31;5009213;28;20274;-75
2021/11/19 04:47:24;;;;;;;11.63;7.50;;;;;;;12.01;91.60;102311.03;5009278;28;20226;-75
2021/11/19 04:49:50;;;;;;;13.37;7.23;;;;;;;12.01;91.48;102321.31;5024051;28;20210;-75
2021/11/19 04:52:16;;;;;;;11.57;7.50;;;;;;;12.02;91.17;102312.78;5008549;28;20207;-74
2021/11/19 04:54:43;;;;;;;13.77;7.60;;;;;;;12.04;91.25;102317.97;5008781;28;20186;-75
2021/11/19 04:57:09;;;;;;;15.70;7.90;;;;;;;12.01;90.98;102320.41;5008994;28;20233;-75
2021/11/19 04:59:37;;;;;;;13.30;7.70;;;;;;;11.98;91.20;102321.19;5017834;28;20206;-75
2021/11/19 05:02:07;;;;;;;17.60;9.43;;;;;;;12.02;91.15;102317.03;5009263;28;20215;-75
2021/11/19 05:04:52;;;;;;;17.70;8.60;;;;;;;12.00;90.91;102329.84;5009151;28;20203;-75
2021/11/19 05:07:20;;;;;;;18.43;9.13;;;;;;;12.03;90.82;102324.78;5024527;28;20187;-75
2021/11/19 05:09:46;;;;;;;15.47;9.20;;;;;;;12.04;90.83;102329.13;5008584;28;20175;-75
2021/11/19 05:12:17;;;;;;;13.90;7.70;;;;;;;12.06;90.97;102313.75;5009287;28;20211;-75
2021/11/19 05:14:43;;;;;;;19.60;9.60;;;;;;;12.09;90.93;102322.47;5023004;28;20201;-75
2021/11/19 05:17:10;;;;;;;22.30;10.53;;;;;;;12.08;90.68;102322.41;5008794;28;20191;-75
2021/11/19 05:19:36;;;;;;;21.63;10.07;;;;;;;12.08;90.99;102319.84;5008359;28;20234;-75
2021/11/19 05:22:03;;;;;;;14.33;10.00;;;;;;;12.07;91.30;102320.66;5008582;28;20225;-75
2021/11/19 05:24:29;;;;;;;16.67;10.13;;;;;;;12.08;91.39;102309.56;5008558;28;20195;-75
2021/11/19 05:26:55;;;;;;;19.57;10.97;;;;;;;12.04;91.44;102321.44;5025143;28;20306;-75
2021/11/19 05:29:21;;;;;;;19.50;12.20;;;;;;;12.04;91.60;102324.00;5008466;28;20179;-75
2021/11/19 05:31:48;;;;;;;21.33;11.40;;;;;;;12.05;92.05;102319.72;5021948;28;20268;-75
2021/11/19 05:34:16;;;;;;;19.37;11.17;;;;;;;12.00;92.26;102314.44;5028344;28;20213;-75
2021/11/19 05:36:42;;;;;;;18.40;12.10;;;;;;;12.00;92.03;102311.84;5028137;28;20564;-75
2021/11/19 05:39:08;;;;;;;20.17;11.70;;;;;;;11.98;92.13;102310.06;5027931;28;20217;-74
2021/11/19 05:41:37;;;;;;;20.90;11.60;;;;;;;11.99;91.84;102314.38;5028107;28;20237;-75
2021/11/19 05:44:03;;;;;;;19.20;11.57;;;;;;;11.99;91.91;102307.53;5028374;28;20237;-74
2021/11/19 05:46:47;;;;;;;18.07;10.90;;;;;;;11.98;92.18;102312.63;5028174;28;20190;-74
2021/11/19 05:49:20;;;;;;;20.00;10.93;;;;;;;11.98;91.91;102305.78;5011836;28;20260;-74
2021/11/19 05:51:49;;;;;;;20.67;11.60;;;;;;;11.97;91.97;102304.03;5027984;28;20213;-74
2021/11/19 05:54:17;;;;;;;18.47;11.00;;;;;;;11.96;92.20;102306.53;5027902;28;20184;-74
2021/11/19 05:56:44;;;;;;;22.90;11.57;;;;;;;11.97;92.06;102308.28;5029260;28;20232;-74
2021/11/19 05:59:10;;;;;;;20.23;10.10;;;;;;;11.97;92.29;102310.84;5027749;28;20214;-74
2021/11/19 06:02:07;;;;;;;18.70;10.03;;;;;;;11.96;92.17;102303.97;5044307;28;20297;-74
2021/11/19 06:04:46;;;;;;;19.77;10.20;;;;;;;11.96;91.92;102303.97;5027880;28;20174;-74
2021/11/19 06:07:26;;;;;;;16.30;10.10;;;;;;;11.96;92.25;102303.97;5024540;28;20174;-74
2021/11/19 06:09:52;;;;;;;17.20;10.30;;;;;;;11.93;92.21;102299.59;5007927;28;20188;-74
2021/11/19 06:12:23;;;;;;;14.83;9.33;;;;;;;11.93;92.14;102309.88;5012543;28;20210;-74
2021/11/19 06:14:53;;;;;;;16.83;10.00;;;;;;;11.97;91.77;102308.28;5013127;28;20198;-74
2021/11/19 06:17:23;;;;;;;18.63;9.30;;;;;;;11.95;91.97;102318.53;5013275;28;20218;-74
2021/11/19 06:19:53;;;;;;;16.90;9.93;;;;;;;11.94;92.12;102321.03;5011415;28;20583;-74
2021/11/19 06:22:25;;;;;;;14.40;9.40;;;;;;;11.95;91.71;102323.66;5011753;28;20574;-74
2021/11/19 06:24:56;;;;;;;18.43;10.07;;;;;;;11.96;92.06;102327.06;5011674;28;20756;-74
2021/11/19 06:27:25;;;;;;;16.37;10.00;;;;;;;11.95;91.74;102320.19;5011755;28;20262;-74
2021/11/19 06:29:57;;;;;;;18.87;9.63;;;;;;;11.96;91.88;102330.53;4995101;28;20210;-74
2021/11/19 06:32:23;;;;;;;19.17;10.23;;;;;;;11.95;92.12;102322.75;5011549;28;20207;-74
2021/11/19 06:34:49;;;;;;;17.17;9.77;;;;;;;11.96;91.62;102330.53;5011731;28;20706;-74
2021/11/19 06:37:15;;;;;;;19.77;10.67;;;;;;;11.95;91.52;102330.47;5011818;28;20222;-74
2021/11/19 06:40:11;;;;;;;16.83;10.10;;;;;;;11.95;91.72;102328.78;5012470;28;20235;-74
2021/11/19 06:43:06;;;;;;;15.63;9.80;;;;;;;11.96;91.41;102327.97;5012585;28;20227;-74
2021/11/19 06:45:57;;;;;;;16.77;9.10;;;;;;;12.00;91.67;102326.38;5012846;28;20203;-73
2021/11/19 06:48:31;;;;;;;16.27;9.10;;;;;;;11.99;91.72;102329.78;5011101;28;20722;-74
2021/11/19 06:51:17;;;;;;;16.30;9.00;;;;;;;11.98;91.56;102331.44;5012536;28;20229;-74
2021/11/19 06:53:54;;;;;;;16.07;9.03;;;;;;;12.04;91.24;102333.38;5011199;28;20207;-74
2021/11/19 06:56:50;;;;;;;16.70;8.53;;;;;;;12.01;91.55;102331.56;5012449;28;20194;-73
2021/11/19 06:59:25;;;;;;;16.53;8.90;;;;;;;12.01;91.51;102329.00;4996644;28;20593;-74
2021/11/19 07:01:51;;;;;;;12.00;8.50;;;;;;;12.05;90.77;102327.41;5012336;28;20230;-74
2021/11/19 07:04:17;;;;;;;15.83;8.70;;;;;;;12.05;91.17;102335.13;5011002;28;20249;-74
2021/11/19 07:06:43;;;;;;;16.33;8.50;;;;;;;12.06;90.89;102336.88;5010999;28;20812;-74
2021/11/19 07:09:11;;;;;;;14.87;8.77;;;;;;;12.04;91.05;102324.00;5011231;28;20206;-74
2021/11/19 07:11:36;;;;;;;15.17;8.17;;;;;;;12.07;91.00;102331.78;5011456;28;20270;-74
2021/11/19 07:14:02;;;;;;;12.53;8.77;;;;;;;12.08;90.91;102340.38;5012118;28;20387;-74
2021/11/19 07:16:30;;;;;;;16.60;8.97;;;;;;;12.08;90.52;102330.09;5011153;28;20239;-74
2021/11/19 07:18:57;;;;;;;19.87;8.80;;;;;;;12.11;90.60;102343.94;5011876;28;20222;-74
2021/11/19 07:21:25;;;;;;;18.23;8.37;;;;;;;12.12;90.81;102340.53;5010311;28;20290;-74
2021/11/19 07:23:52;;;;;;;13.43;8.37;;;;;;;12.12;90.76;102342.25;5010624;28;20262;-74
2021/11/19 07:26:19;;;;;;;17.50;8.37;;;;;;;12.15;90.39;102347.47;5010625;28;20187;-74
2021/11/19 07:28:45;;;;;;;21.63;8.37;;;;;;;12.15;90.41;102348.38;5009891;28;20194;-74
2021/11/19 07:31:35;;;;;;;14.03;7.50;;;;;;;12.15;90.38;102356.06;5011515;28;20203;-74
2021/11/19 07:34:19;;;;;;;16.47;8.00;;;;;;;12.16;90.42;102352.69;5013532;28;20222;-75
2021/11/19 07:37:12;;;;;;;17.70;7.80;;;;;;;12.15;90.00;102353.50;5010378;28;20193;-75
2021/11/19 07:39:53;;;;;;;13.40;6.73;;;;;;;12.18;89.97;102358.75;5020869;28;20213;-74
2021/11/19 07:42:45;;;;;;;13.67;7.27;;;;;;;12.18;89.84;102358.75;5032038;28;20222;-74
2021/11/19 07:45:14;;;;;;;10.73;6.40;;;;;;;12.19;90.00;102364.75;5030136;28;20280;-75
2021/11/19 07:47:45;;;;;;;15.70;6.80;;;;;;;12.19;89.85;102368.22;5014369;28;20175;-76
2021/11/19 07:50:15;;;;;;;14.27;7.20;;;;;;;12.19;90.02;102363.06;5029937;28;20674;-75
2021/11/19 07:52:41;;;;;;;12.13;6.57;;;;;;;12.22;89.96;102370.00;5026601;28;20207;-74
2021/11/19 07:55:08;;;;;;;13.57;7.30;;;;;;;12.23;89.71;102354.66;5023904;28;20218;-74
2021/11/19 07:57:34;;;;;;;13.70;7.23;;;;;;;12.23;89.88;102361.47;5029682;28;20202;-75
2021/11/19 07:59:59;;;;;;;16.63;7.40;;;;;;;12.23;89.56;102364.06;5013295;28;20221;-74
2021/11/19 08:02:25;;;;;;;13.17;7.37;;;;;;;12.24;89.52;102371.81;5013363;28;20206;-75
2021/11/19 08:04:50;;;;;;;16.00;6.97;;;;;;;12.24;89.67;102365.78;5029967;28;20197;-75
2021/11/19 08:07:29;;;;;;;13.87;6.43;;;;;;;12.24;89.64;102368.38;5029632;28;20186;-74
2021/11/19 08:10:14;;;;;;;13.90;6.13;;;;;;;12.26;89.38;102371.88;5029738;28;20563;-75
2021/11/19 08:12:45;;;;;;;13.63;6.67;;;;;;;12.29;89.80;102366.84;5029528;28;20293;-76
2021/11/19 08:15:22;;;;;;;17.53;7.40;;;;;;;12.28;89.77;102371.13;5011364;28;20289;-74
2021/11/19 08:17:50;;;;;;;12.77;6.97;;;;;;;12.26;89.82;102367.59;5019142;28;20190;-74
2021/11/19 08:20:26;;;;;;;17.17;7.27;;;;;;;12.27;89.48;102369.38;5025485;28;20194;-74
2021/11/19 08:22:52;;;;;;;15.33;7.00;;;;;;;12.28;89.57;102359.97;5022670;28;20242;-75
2021/11/19 08:25:19;;;;;;;13.70;7.27;;;;;;;12.27;89.89;102369.38;5021292;28;20209;-74
2021/11/19 08:27:48;;;;;;;13.73;7.60;;;;;;;12.27;89.68;102369.38;5022074;28;20187;-74
2021/11/19 08:30:25;;;;;;;15.63;7.93;;;;;;;12.28;89.80;102375.38;5030164;28;20236;-74
2021/11/19 08:32:50;;;;;;;14.97;7.17;;;;;;;12.28;89.22;102370.22;5030226;28;20255;-74
2021/11/19 08:35:16;;;;;;;17.03;8.30;;;;;;;12.29;89.56;102367.72;5029927;28;20190;-74
2021/11/19 08:37:42;;;;;;;12.47;7.60;;;;;;;12.30;89.82;102364.31;5029515;28;20183;-74
2021/11/19 08:40:11;;;;;;;11.90;6.93;;;;;;;12.31;89.60;102360.94;5028657;28;20224;-74
2021/11/19 08:42:38;;;;;;;16.67;7.80;;;;;;;12.33;89.47;102363.56;5030226;28;20248;-74
2021/11/19 08:45:03;;;;;;;16.27;7.80;;;;;;;12.36;89.67;102359.41;5030167;28;20198;-74
2021/11/19 08:47:30;;;;;;;11.17;7.50;;;;;;;12.40;88.98;102358.69;5028787;28;20236;-74
2021/11/19 08:49:58;;;;;;;13.10;6.90;;;;;;;12.40;89.12;102366.41;5029991;28;20190;-74
2021/11/19 08:52:23;;;;;;;14.33;6.93;;;;;;;12.40;89.41;102365.56;5028761;28;20356;-74
2021/11/19 08:54:50;;;;;;;12.60;7.63;;;;;;;12.49;89.15;102369.31;5030686;28;20281;-72
2021/11/19 08:57:24;;;;;;;12.97;6.97;;;;;;;12.62;89.66;102361.22;5028985;28;20194;-69
2021/11/19 08:59:50;;;;;;;10.00;7.17;;;;;;;12.62;88.38;102362.91;5029978;28;20434;-74
2021/11/19 09:02:20;;;;;;;13.27;6.70;;;;;;;12.60;88.77;102362.88;5029001;28;20579;-74
2021/11/19 09:04:45;;;;;;;13.63;6.67;;;;;;;12.64;88.83;102363.84;5024255;28;20193;-75
2021/11/19 09:07:12;;;;;;;8.17;5.93;;;;;;;12.63;88.42;102374.97;5024552;28;20194;-74
2021/11/19 09:09:38;;;;;;;9.83;6.67;;;;;;;12.60;88.13;102374.84;5028262;28;20194;-75
2021/11/19 09:12:04;;;;;;;9.57;5.97;;;;;;;12.60;88.42;102379.97;5020972;28;20601;-75
2021/11/19 09:14:29;;;;;;;10.87;6.07;;;;;;;12.59;88.12;102381.66;5023113;28;20198;-74
2021/11/19 09:17:17;;;;;;;13.40;6.67;;;;;;;12.59;88.12;102383.38;5029703;28;20191;-74
2021/11/19 09:19:59;;;;;;;11.30;6.37;;;;;;;12.60;88.51;102380.88;5029346;28;20305;-74
2021/11/19 09:22:35;;;;;;;13.80;6.40;;;;;;;12.53;88.64;102385.75;5026769;28;20214;-74
2021/11/19 09:25:05;;;;;;;14.13;6.80;;;;;;;12.50;89.08;102389.03;5009763;28;20214;-71
2021/11/19 09:27:34;;;;;;;10.63;6.27;;;;;;;12.49;88.99;102391.59;5009580;28;20282;-74
2021/11/19 09:30:16;;;;;;;12.77;6.90;;;;;;;12.48;89.55;102390.69;5009632;28;20178;-74
2021/11/19 09:32:48;;;;;;;11.23;6.43;;;;;;;12.45;89.25;102390.56;5008341;28;20302;-74
2021/11/19 09:35:14;;;;;;;12.83;7.17;;;;;;;12.48;89.74;102395.84;5008484;28;20683;-74
2021/11/19 09:37:41;;;;;;;12.07;6.30;;;;;;;12.52;89.54;102384.84;5008228;28;20194;-74
2021/11/19 09:40:08;;;;;;;11.03;6.63;;;;;;;12.55;88.80;102384.09;5025813;28;20305;-74
2021/11/19 09:42:44;;;;;;;10.13;6.80;;;;;;;12.62;88.49;102391.19;5029174;28;20679;-74
2021/11/19 09:45:37;;;;;;;11.53;5.90;;;;;;;12.63;88.10;102386.09;5028116;28;20697;-74
2021/11/19 09:48:37;;;;;;;9.17;6.17;;;;;;;12.65;88.34;102384.47;5025130;28;20190;-74
2021/11/19 09:51:42;;;;;;;9.57;6.17;;;;;;;12.64;88.04;102387.88;5033437;28;20186;-74
2021/11/19 09:54:35;;;;;;;12.03;7.03;;;;;;;12.56;87.91;102384.16;5033335;28;20182;-75
2021/11/19 09:57:19;;;;;;;11.40;7.20;;;;;;;12.60;87.49;102380.88;5031822;28;20206;-74
2021/11/19 09:59:46;;;;;;;8.83;6.60;;;;;;;12.65;87.63;102388.72;5032756;28;20249;-74
2021/11/19 10:02:43;;;;;;;9.67;6.63;;;;;;;12.70;87.74;102389.75;5032916;28;20202;-74
2021/11/19 10:05:30;;;;;;;10.60;7.20;;;;;;;12.70;87.52;102392.34;5033052;28;20190;-74
2021/11/19 10:08:01;;;;;;;11.83;6.60;;;;;;;12.74;86.92;102391.63;5032881;28;20208;-74
2021/11/19 10:10:47;;;;;;;12.20;6.43;;;;;;;12.76;86.82;102402.84;5032757;28;20194;-74
2021/11/19 10:13:21;;;;;;;10.33;6.43;;;;;;;12.78;86.96;102396.94;5032728;28;20221;-74
2021/11/19 10:16:02;;;;;;;8.03;6.10;;;;;;;12.83;86.17;102399.66;5032784;28;20197;-74
2021/11/19 10:18:39;;;;;;;10.03;6.07;;;;;;;12.85;86.56;102403.16;5012782;28;20269;-74
2021/11/19 10:21:17;;;;;;;10.67;5.30;;;;;;;12.84;85.83;102393.69;5013048;28;20938;-74
2021/11/19 10:23:53;;;;;;;9.27;5.33;;;;;;;12.89;85.57;102390.47;5012884;28;20207;-74
2021/11/19 10:26:23;;;;;;;11.03;5.20;;;;;;;12.99;85.73;102394.28;5013189;28;20191;-73
2021/11/19 10:28:57;;;;;;;6.73;4.97;;;;;;;13.01;85.68;102395.19;5012783;28;20195;-75
2021/11/19 10:31:24;;;;;;;9.97;4.20;;;;;;;13.04;85.26;102392.75;5030651;28;20194;-73
2021/11/19 10:33:58;;;;;;;7.23;4.37;;;;;;;13.03;85.30;102390.97;5032686;28;20221;-74
2021/11/19 10:36:33;;;;;;;8.43;4.87;;;;;;;13.03;85.19;102378.09;5032790;28;20186;-76
2021/11/19 10:39:27;;;;;;;8.50;5.20;;;;;;;13.04;84.72;102391.84;5032359;28;20221;-75
2021/11/19 10:42:23;;;;;;;9.57;4.63;;;;;;;13.05;85.08;102385.88;5032388;28;20268;-75
2021/11/19 10:45:31;;;;;;;7.70;5.07;;;;;;;13.02;85.09;102380.66;5031141;28;20194;-74
2021/11/19 10:48:21;;;;;;;10.20;5.10;;;;;;;13.04;84.47;102384.13;5032274;28;20209;-74
2021/11/19 10:51:19;;;;;;;8.30;4.90;;;;;;;13.01;84.89;102395.19;5032990;28;20186;-74
2021/11/19 10:54:29;;;;;;;12.07;5.20;;;;;;;13.02;84.81;102393.50;5031902;28;20273;-74
2021/11/19 10:57:30;;;;;;;8.00;4.67;;;;;;;13.00;84.69;102396.03;5031656;28;20668;-75
2021/11/19 10:59:58;;;;;;;8.23;4.90;;;;;;;13.04;84.49;102391.84;5030468;28;20725;-74
2021/11/19 11:02:35;;;;;;;11.00;5.93;;;;;;;13.03;84.99;102392.69;5030780;28;20590;-76
2021/11/19 11:05:02;;;;;;;9.80;5.63;;;;;;;13.03;85.05;102393.53;5030792;28;20224;-75
2021/11/19 11:07:40;;;;;;;10.13;5.13;;;;;;;13.01;84.55;102392.63;5030644;28;20194;-75
2021/11/19 11:10:10;;;;;;;8.93;4.83;;;;;;;12.98;84.60;102391.66;5031925;28;20851;-73
2021/11/19 11:12:41;;;;;;;8.23;4.90;;;;;;;13.00;84.44;102401.16;5031889;28;20217;-74
2021/11/19 11:15:14;;;;;;;7.07;4.93;;;;;;;12.99;84.64;102390.81;5031746;28;20268;-74
2021/11/19 11:17:58;;;;;;;10.40;5.27;;;;;;;12.99;84.99;102389.16;5031389;28;20635;-73
2021/11/19 11:20:29;;;;;;;13.30;5.47;;;;;;;12.97;84.52;102393.34;5013813;28;20201;-75
2021/11/19 11:22:58;;;;;;;12.70;6.00;;;;;;;12.93;85.07;102393.16;5030384;28;20657;-75
2021/11/19 11:25:35;;;;;;;9.57;5.77;;;;;;;12.95;85.08;102400.97;5031771;28;20220;-75
2021/11/19 11:28:15;;;;;;;13.77;6.33;;;;;;;12.93;84.77;102394.03;5028223;28;20194;-74
2021/11/19 11:30:54;;;;;;;12.90;6.40;;;;;;;12.97;84.40;102387.31;5017260;28;20210;-74
2021/11/19 11:33:29;;;;;;;11.67;6.80;;;;;;;12.98;84.75;102389.94;5027635;28;20348;-74
2021/11/19 11:36:09;;;;;;;13.43;6.70;;;;;;;12.99;84.59;102373.72;5031657;28;20192;-74
2021/11/19 11:38:49;;;;;;;9.70;5.90;;;;;;;13.04;84.92;102386.72;5031458;28;20634;-74